createdAt,value
2022-09-15T00:01:42.290Z,46.20
2022-09-15T00:04:10.874Z,48.50
2022-09-15T00:06:39.135Z,48.88
2022-09-15T00:09:07.642Z,48.78
2022-09-15T00:11:38.708Z,51.72
2022-09-15T00:14:08.922Z,49.28
2022-09-15T00:16:37.529Z,49.25
2022-09-15T00:19:07.700Z,51.25
2022-09-15T00:21:39.510Z,43.15
2022-09-15T00:24:11.259Z,42.67
2022-09-15T00:26:40.669Z,43.10
2022-09-15T00:29:12.302Z,43.42
2022-09-15T00:31:41.072Z,43.90
2022-09-15T00:34:14.639Z,44.35
2022-09-15T00:36:42.904Z,44.67
2022-09-15T00:39:12.420Z,43.15
2022-09-15T00:41:41.424Z,44.35
2022-09-15T00:45:01.001Z,42.53
2022-09-15T00:47:36.768Z,42.30
2022-09-15T00:50:10.786Z,40.42
2022-09-15T00:52:45.273Z,38.92
2022-09-15T00:55:19.959Z,38.50
2022-09-15T00:57:55.076Z,36.28
2022-09-15T01:00:27.433Z,37.22
2022-09-15T01:02:57.491Z,37.22
2022-09-15T01:05:35.596Z,37.20
2022-09-15T01:08:09.558Z,36.85
2022-09-15T01:10:41.089Z,36.35
2022-09-15T01:13:12.911Z,39.33
2022-09-15T01:15:54.645Z,37.63
2022-09-15T01:18:29.503Z,37.65
2022-09-15T01:21:29.568Z,37.05
2022-09-15T01:24:38.010Z,37.63
2022-09-15T01:27:42.914Z,37.35
2022-09-15T01:30:15.344Z,40.60
2022-09-15T01:33:13.321Z,41.03
2022-09-15T01:35:55.103Z,41.53
2022-09-15T01:38:33.985Z,44.28
2022-09-15T01:41:09.242Z,43.25
2022-09-15T01:43:44.569Z,46.22
2022-09-15T01:46:18.971Z,47.15
2022-09-15T01:48:50.513Z,47.08
2022-09-15T01:51:19.578Z,47.15
2022-09-15T01:53:50.928Z,47.90
2022-09-15T01:56:19.655Z,50.95
2022-09-15T01:58:52.203Z,49.00
2022-09-15T02:04:04.291Z,51.10
2022-09-15T02:06:41.113Z,50.75
2022-09-15T02:09:15.779Z,50.58
2022-09-15T02:11:55.174Z,48.28
2022-09-15T02:14:43.635Z,49.95
2022-09-15T02:17:18.739Z,49.30
2022-09-15T02:19:52.250Z,47.03
2022-09-15T02:22:27.731Z,49.97
2022-09-15T02:25:02.926Z,49.35
2022-09-15T02:27:37.680Z,48.58
2022-09-15T02:30:12.687Z,47.50
2022-09-15T02:32:49.066Z,50.20
2022-09-15T02:35:18.441Z,49.67
2022-09-15T02:37:47.584Z,51.00
2022-09-15T02:40:15.978Z,51.20
2022-09-15T02:42:55.827Z,49.92
2022-09-15T02:45:25.194Z,49.08
2022-09-15T02:47:54.809Z,52.25
2022-09-15T02:50:23.047Z,53.80
2022-09-15T02:52:51.265Z,51.42
2022-09-15T02:55:19.596Z,52.10
2022-09-15T02:57:47.778Z,53.25
2022-09-15T03:00:20.112Z,56.45
2022-09-15T03:02:51.649Z,57.65
2022-09-15T03:05:24.736Z,58.33
2022-09-15T03:10:24.053Z,55.03
2022-09-15T03:12:54.776Z,54.35
2022-09-15T03:15:25.436Z,56.22
2022-09-15T03:17:54.891Z,53.72
2022-09-15T03:20:28.106Z,54.63
2022-09-15T03:22:56.707Z,56.83
2022-09-15T03:25:26.833Z,54.20
2022-09-15T03:27:56.609Z,51.90
2022-09-15T03:30:24.907Z,53.95
2022-09-15T03:32:53.511Z,57.45
2022-09-15T03:35:21.731Z,57.33
2022-09-15T03:37:51.179Z,55.95
2022-09-15T03:40:19.401Z,55.50
2022-09-15T03:42:47.583Z,52.75
2022-09-15T03:45:16.003Z,52.08
2022-09-15T03:47:44.139Z,52.63
2022-09-15T03:50:12.272Z,55.00
2022-09-15T03:52:40.433Z,53.10
2022-09-15T03:55:11.027Z,52.60
2022-09-15T03:57:39.178Z,55.17
2022-09-15T04:00:09.674Z,51.95
2022-09-15T04:02:37.795Z,51.05
2022-09-15T04:05:07.354Z,49.33
2022-09-15T04:07:35.583Z,47.65
2022-09-15T04:10:04.615Z,49.22
2022-09-15T04:12:34.467Z,45.75
2022-09-15T04:15:03.905Z,45.63
2022-09-15T04:17:32.141Z,44.53
2022-09-15T04:20:00.340Z,44.13
2022-09-15T04:22:32.151Z,45.25
2022-09-15T04:25:00.358Z,44.17
2022-09-15T04:27:28.911Z,43.05
2022-09-15T04:29:58.669Z,42.38
2022-09-15T04:32:29.577Z,42.15
2022-09-15T04:34:57.739Z,43.05
2022-09-15T04:37:26.883Z,41.70
2022-09-15T04:39:55.137Z,40.47
2022-09-15T04:42:23.901Z,40.88
2022-09-15T04:44:52.135Z,40.45
2022-09-15T04:47:21.671Z,42.58
2022-09-15T04:49:49.796Z,44.58
2022-09-15T04:52:18.157Z,42.05
2022-09-15T04:54:46.323Z,42.03
2022-09-15T04:57:14.559Z,40.75
2022-09-15T04:59:42.783Z,44.45
2022-09-15T05:02:11.247Z,44.20
2022-09-15T05:04:40.905Z,42.80
2022-09-15T05:07:09.072Z,43.75
2022-09-15T05:09:37.279Z,41.03
2022-09-15T05:12:06.113Z,40.88
2022-09-15T05:14:34.357Z,40.50
2022-09-15T05:17:02.697Z,39.67
2022-09-15T05:19:30.899Z,39.40
2022-09-15T05:22:00.535Z,39.90
2022-09-15T05:24:28.655Z,41.58
2022-09-15T05:26:56.824Z,41.30
2022-09-15T05:29:25.163Z,42.67
2022-09-15T05:31:54.646Z,42.67
2022-09-15T05:34:22.904Z,46.03
2022-09-15T05:36:51.145Z,44.03
2022-09-15T05:39:20.731Z,42.53
2022-09-15T05:41:48.956Z,45.10
2022-09-15T05:44:18.219Z,43.90
2022-09-15T05:46:46.385Z,40.50
2022-09-15T05:49:15.068Z,41.97
2022-09-15T05:51:44.545Z,43.30
2022-09-15T05:54:12.719Z,41.83
2022-09-15T05:56:42.537Z,44.45
2022-09-15T05:59:10.717Z,40.13
2022-09-15T06:01:39.108Z,39.30
2022-09-15T06:04:07.324Z,38.03
2022-09-15T06:06:35.497Z,38.28
2022-09-15T06:09:07.226Z,37.08
2022-09-15T06:11:35.436Z,35.50
2022-09-15T06:14:06.000Z,32.22
2022-09-15T06:16:36.050Z,31.73
2022-09-15T06:19:04.531Z,28.02
2022-09-15T06:21:33.996Z,30.17
2022-09-15T06:24:04.480Z,27.60
2022-09-15T06:26:32.882Z,26.35
2022-09-15T06:29:03.202Z,27.33
2022-09-15T06:31:35.663Z,27.35
2022-09-15T06:34:05.422Z,28.48
2022-09-15T06:36:34.342Z,27.75
2022-09-15T06:39:02.844Z,28.10
2022-09-15T06:41:52.502Z,27.55
2022-09-15T06:44:20.093Z,28.45
2022-09-15T06:46:50.260Z,27.27
2022-09-15T06:49:19.080Z,26.42
2022-09-15T06:51:47.399Z,27.73
2022-09-15T06:54:16.677Z,26.73
2022-09-15T06:56:45.604Z,28.10
2022-09-15T06:59:14.721Z,26.42
2022-09-15T07:01:44.186Z,25.75
2022-09-15T07:04:14.108Z,27.35
2022-09-15T07:06:42.479Z,27.83
2022-09-15T07:09:13.100Z,27.48
2022-09-15T07:11:42.073Z,27.00
2022-09-15T07:14:10.386Z,25.33
2022-09-15T07:16:38.782Z,27.17
2022-09-15T07:19:07.312Z,27.35
2022-09-15T07:21:37.299Z,27.30
2022-09-15T07:24:07.594Z,28.02
2022-09-15T07:26:36.369Z,27.70
2022-09-15T07:29:07.362Z,28.38
2022-09-15T07:31:38.956Z,28.60
2022-09-15T07:34:08.638Z,28.30
2022-09-15T07:36:38.281Z,29.75
2022-09-15T07:39:07.145Z,30.88
2022-09-15T07:41:35.416Z,32.40
2022-09-15T07:44:04.645Z,31.67
2022-09-15T07:46:34.409Z,34.70
2022-09-15T07:49:03.827Z,31.83
2022-09-15T07:51:32.193Z,32.72
2022-09-15T07:54:02.512Z,31.48
2022-09-15T07:56:30.757Z,30.42
2022-09-15T07:58:59.627Z,31.63
2022-09-15T08:01:28.092Z,30.98
2022-09-15T08:03:56.347Z,32.55
2022-09-15T08:06:27.471Z,30.33
2022-09-15T08:09:00.384Z,29.50
2022-09-15T08:11:31.792Z,31.23
2022-09-15T08:14:03.338Z,29.60
2022-09-15T08:16:31.697Z,29.65
2022-09-15T08:18:59.948Z,30.00
2022-09-15T08:21:29.197Z,30.42
2022-09-15T08:23:59.831Z,30.17
2022-09-15T08:26:30.915Z,31.38
2022-09-15T08:29:00.572Z,29.15
2022-09-15T08:31:29.322Z,30.25
2022-09-15T08:33:58.282Z,28.95
2022-09-15T08:36:27.734Z,32.28
2022-09-15T08:38:57.050Z,32.20
2022-09-15T08:41:32.281Z,34.50
2022-09-15T08:44:09.683Z,31.23
2022-09-15T08:46:47.922Z,31.33
2022-09-15T08:49:47.413Z,33.70
2022-09-15T08:52:20.855Z,31.48
2022-09-15T08:54:52.355Z,33.05
2022-09-15T08:57:25.807Z,34.30
2022-09-15T08:59:55.672Z,34.35
2022-09-15T09:02:56.147Z,34.78
2022-09-15T09:05:48.523Z,34.08
2022-09-15T09:08:39.100Z,33.60
2022-09-15T09:11:19.879Z,34.05
2022-09-15T09:14:07.672Z,32.88
2022-09-15T09:16:53.818Z,31.45
2022-09-15T09:19:50.553Z,31.27
2022-09-15T09:22:24.969Z,30.25
2022-09-15T09:24:56.666Z,31.75
2022-09-15T09:27:29.799Z,30.77
2022-09-15T09:30:03.840Z,30.27
2022-09-15T09:32:43.715Z,29.13
2022-09-15T09:35:21.557Z,26.83
2022-09-15T09:37:51.282Z,25.00
2022-09-15T09:40:20.580Z,26.30
2022-09-15T09:42:49.112Z,26.50
2022-09-15T09:45:20.238Z,25.73
2022-09-15T09:47:48.470Z,25.73
2022-09-15T09:50:35.717Z,25.25
2022-09-15T09:53:27.297Z,20.88
2022-09-15T09:56:15.387Z,21.58
2022-09-15T09:58:44.718Z,19.58
2022-09-15T10:01:16.947Z,21.30
2022-09-15T10:03:46.445Z,16.98
2022-09-15T10:06:19.514Z,16.98
2022-09-15T10:08:57.880Z,18.40
2022-09-15T10:11:43.124Z,18.25
2022-09-15T10:14:23.849Z,15.52
2022-09-15T10:17:02.309Z,16.70
2022-09-15T10:19:32.101Z,13.63
2022-09-15T10:22:02.353Z,13.80
2022-09-15T10:24:36.932Z,16.42
2022-09-15T10:27:21.077Z,13.43
2022-09-15T10:29:49.557Z,13.07
2022-09-15T10:32:30.173Z,13.82
2022-09-15T10:35:04.828Z,14.77
2022-09-15T10:37:51.001Z,12.40
2022-09-15T10:40:45.742Z,12.63
2022-09-15T10:43:33.774Z,14.05
2022-09-15T10:46:20.860Z,12.50
2022-09-15T10:49:11.895Z,10.38
2022-09-15T10:51:55.103Z,8.65
2022-09-15T10:54:41.203Z,11.90
2022-09-15T11:00:05.728Z,6.25
2022-09-15T11:02:59.037Z,6.10
2022-09-15T11:05:52.050Z,6.20
2022-09-15T11:08:52.283Z,7.43
2022-09-15T11:11:34.397Z,6.45
2022-09-15T11:14:20.255Z,4.25
2022-09-15T11:17:07.937Z,4.57
2022-09-15T11:20:04.222Z,4.38
2022-09-15T11:22:39.680Z,4.07
2022-09-15T11:25:17.945Z,3.90
2022-09-15T11:27:53.920Z,3.03
2022-09-15T11:30:24.816Z,3.72
2022-09-15T11:33:01.389Z,2.90
2022-09-15T11:35:46.164Z,3.15
2022-09-15T11:38:32.375Z,3.90
2022-09-15T11:41:17.677Z,3.83
2022-09-15T11:44:02.271Z,3.00
2022-09-15T11:46:45.545Z,3.20
2022-09-15T11:49:19.920Z,2.85
2022-09-15T11:52:00.520Z,2.53
2022-09-15T11:54:39.151Z,2.40
2022-09-15T11:57:16.002Z,2.25
2022-09-15T11:59:54.759Z,1.75
2022-09-15T12:02:31.895Z,1.80
2022-09-15T12:05:15.028Z,1.67
2022-09-15T12:07:51.259Z,2.17
2022-09-15T12:10:27.483Z,1.75
2022-09-15T12:12:56.679Z,1.63
2022-09-15T12:15:27.690Z,1.63
2022-09-15T12:18:37.437Z,1.75
2022-09-15T12:21:15.240Z,1.75
2022-09-15T12:23:51.751Z,1.60
2022-09-15T12:26:24.356Z,1.55
2022-09-15T12:34:24.419Z,1.60
2022-09-15T12:36:54.684Z,1.85
2022-09-15T12:39:30.032Z,2.00
2022-09-15T12:42:18.666Z,1.50
2022-09-15T12:44:53.637Z,1.98
2022-09-15T12:47:36.705Z,1.80
2022-09-15T12:50:22.879Z,1.77
2022-09-15T12:52:54.561Z,1.60
2022-09-15T12:55:26.722Z,1.60
2022-09-15T12:58:00.151Z,1.92
2022-09-15T13:00:33.551Z,1.45
2022-09-15T13:03:04.498Z,1.80
2022-09-15T13:06:21.268Z,1.63
2022-09-15T13:09:13.074Z,1.83
2022-09-15T13:14:30.065Z,1.65
2022-09-15T13:17:05.981Z,1.85
2022-09-15T13:19:43.595Z,2.13
2022-09-15T13:22:27.263Z,2.05
2022-09-15T13:25:01.788Z,1.65
2022-09-15T13:27:37.035Z,2.20
2022-09-15T13:30:24.139Z,2.00
2022-09-15T13:33:02.368Z,1.60
2022-09-15T13:36:01.715Z,1.75
2022-09-15T13:39:00.458Z,2.47
2022-09-15T13:42:03.634Z,2.40
2022-09-15T13:45:32.672Z,2.85
2022-09-15T13:48:31.064Z,2.72
2022-09-15T13:51:02.588Z,2.67
2022-09-15T13:53:52.257Z,2.90
2022-09-15T13:56:27.840Z,2.10
2022-09-15T13:59:09.678Z,2.15
2022-09-15T14:01:39.887Z,2.90
2022-09-15T14:04:16.563Z,3.55
2022-09-15T14:06:47.896Z,2.97
2022-09-15T14:09:19.728Z,2.45
2022-09-15T14:11:51.261Z,2.97
2022-09-15T14:14:36.892Z,2.85
2022-09-15T14:17:05.462Z,2.83
2022-09-15T14:19:38.322Z,3.13
2022-09-15T14:22:27.114Z,2.47
2022-09-15T14:24:59.872Z,2.00
2022-09-15T14:27:31.368Z,1.85
2022-09-15T14:30:04.633Z,1.75
2022-09-15T14:32:38.913Z,1.88
2022-09-15T14:35:19.681Z,1.30
2022-09-15T14:37:50.815Z,1.52
2022-09-15T14:40:24.608Z,2.08
2022-09-15T14:42:52.850Z,1.70
2022-09-15T14:48:18.493Z,2.08
2022-09-15T14:50:59.565Z,1.60
2022-09-15T14:53:30.065Z,1.63
2022-09-15T14:56:08.205Z,1.52
2022-09-15T14:58:41.651Z,1.92
2022-09-15T15:01:17.679Z,1.63
2022-09-15T15:03:53.717Z,1.63
2022-09-15T15:06:32.631Z,1.92
2022-09-15T15:09:08.256Z,1.80
2022-09-15T15:11:41.740Z,1.73
2022-09-15T15:14:12.792Z,1.90
2022-09-15T15:16:53.235Z,2.22
2022-09-15T15:19:40.516Z,2.22
2022-09-15T15:22:20.979Z,2.35
2022-09-15T15:24:52.433Z,2.08
2022-09-15T15:27:41.552Z,2.20
2022-09-15T15:30:48.401Z,2.50
2022-09-15T15:33:24.043Z,2.30
2022-09-15T15:36:11.752Z,1.90
2022-09-15T15:38:47.645Z,1.80
2022-09-15T15:41:22.559Z,1.75
2022-09-15T15:44:00.751Z,1.95
2022-09-15T15:46:50.428Z,2.00
2022-09-15T15:49:20.976Z,1.75
2022-09-15T15:51:50.144Z,1.83
2022-09-15T15:54:22.620Z,2.15
2022-09-15T15:59:20.197Z,1.50
2022-09-15T16:01:53.715Z,1.80
2022-09-15T16:04:22.436Z,2.03
2022-09-15T16:06:51.760Z,2.15
2022-09-15T16:09:21.822Z,1.95
2022-09-15T16:11:50.718Z,1.50
2022-09-15T16:14:18.921Z,2.45
2022-09-15T16:16:47.153Z,2.45
2022-09-15T16:19:15.395Z,2.20
2022-09-15T16:21:44.271Z,1.80
2022-09-15T16:24:16.327Z,1.88
2022-09-15T16:26:50.636Z,2.47
2022-09-15T16:29:30.033Z,2.25
2022-09-15T16:31:58.826Z,2.28
2022-09-15T16:34:27.225Z,2.13
2022-09-15T16:36:55.445Z,2.08
2022-09-15T16:39:23.882Z,2.25
2022-09-15T16:41:53.464Z,2.22
2022-09-15T16:44:21.905Z,2.10
2022-09-15T16:46:50.331Z,1.98
2022-09-15T16:49:21.012Z,2.10
2022-09-15T16:51:49.317Z,2.20
2022-09-15T16:54:20.213Z,2.35
2022-09-15T16:56:48.436Z,1.70
2022-09-15T16:59:17.968Z,1.75
2022-09-15T17:01:46.450Z,1.88
2022-09-15T17:04:19.013Z,1.92
2022-09-15T17:09:15.789Z,1.90
2022-09-15T17:11:44.725Z,2.40
2022-09-15T17:14:18.505Z,1.98
2022-09-15T17:16:52.584Z,2.10
2022-09-15T17:19:21.159Z,1.90
2022-09-15T17:21:52.597Z,1.90
2022-09-15T17:24:21.666Z,1.80
2022-09-15T17:26:49.991Z,1.88
2022-09-15T17:29:20.736Z,2.00
2022-09-15T17:31:48.899Z,2.30
2022-09-15T17:34:19.886Z,2.58
2022-09-15T17:36:51.468Z,2.25
2022-09-15T17:39:21.068Z,2.25
2022-09-15T17:41:49.338Z,2.28
2022-09-15T17:44:19.050Z,2.30
2022-09-15T17:46:47.244Z,2.45
2022-09-15T17:49:15.822Z,2.55
2022-09-15T17:51:43.969Z,2.63
2022-09-15T17:54:12.434Z,2.28
2022-09-15T17:56:40.865Z,2.22
2022-09-15T17:59:13.081Z,2.22
2022-09-15T18:01:45.865Z,2.45
2022-09-15T18:04:14.056Z,2.60
2022-09-15T18:06:45.541Z,2.13
2022-09-15T18:09:14.986Z,2.33
2022-09-15T18:11:43.247Z,2.15
2022-09-15T18:14:12.197Z,1.70
2022-09-15T18:16:41.424Z,2.28
2022-09-15T18:19:10.934Z,1.85
2022-09-15T18:21:39.197Z,1.58
2022-09-15T18:24:07.899Z,1.70
2022-09-15T18:26:36.119Z,1.80
2022-09-15T18:29:04.427Z,1.52
2022-09-15T18:31:33.243Z,1.40
2022-09-15T18:34:02.752Z,1.65
2022-09-15T18:36:32.291Z,1.63
2022-09-15T18:39:00.842Z,1.52
2022-09-15T18:41:29.049Z,1.40
2022-09-15T18:43:57.525Z,1.40
2022-09-15T18:46:25.958Z,1.90
2022-09-15T18:48:54.539Z,1.60
2022-09-15T18:51:29.136Z,1.77
2022-09-15T18:54:04.955Z,1.65
2022-09-15T18:56:33.285Z,2.15
2022-09-15T18:59:01.587Z,1.48
2022-09-15T19:01:30.322Z,1.70
2022-09-15T19:03:58.739Z,1.55
2022-09-15T19:06:27.134Z,1.80
2022-09-15T19:08:55.565Z,1.30
2022-09-15T19:11:25.181Z,1.73
2022-09-15T19:13:54.384Z,1.40
2022-09-15T19:16:34.504Z,1.50
2022-09-15T19:19:11.701Z,1.60
2022-09-15T19:21:39.888Z,1.85
2022-09-15T19:24:08.289Z,1.80
2022-09-15T19:26:38.048Z,2.05
2022-09-15T19:29:07.629Z,1.90
2022-09-15T19:31:41.809Z,2.10
2022-09-15T19:34:10.682Z,1.70
2022-09-15T19:36:39.262Z,1.60
2022-09-15T19:39:07.694Z,1.60
2022-09-15T19:41:37.658Z,1.67
2022-09-15T19:44:08.431Z,1.60
2022-09-15T19:46:37.891Z,1.85
2022-09-15T19:49:06.554Z,1.90
2022-09-15T19:51:35.773Z,1.95
2022-09-15T19:54:05.206Z,2.10
2022-09-15T19:56:37.310Z,2.50
2022-09-15T19:59:07.224Z,1.90
2022-09-15T20:01:37.795Z,1.77
2022-09-15T20:04:06.539Z,2.20
2022-09-15T20:06:34.765Z,2.10
2022-09-15T20:09:03.044Z,2.50
2022-09-15T20:11:32.757Z,1.90
2022-09-15T20:14:02.826Z,1.75
2022-09-15T20:16:32.031Z,1.95
2022-09-15T20:19:00.785Z,2.20
2022-09-15T20:21:49.371Z,1.73
2022-09-15T20:24:19.740Z,2.40
2022-09-15T20:26:48.693Z,2.22
2022-09-15T20:29:18.470Z,2.00
2022-09-15T20:31:46.874Z,2.00
2022-09-15T20:34:15.419Z,2.13
2022-09-15T20:36:45.460Z,1.83
2022-09-15T20:39:15.842Z,1.90
2022-09-15T20:41:45.630Z,2.10
2022-09-15T20:44:14.527Z,1.98
2022-09-15T20:46:44.267Z,1.88
2022-09-15T20:49:13.262Z,2.13
2022-09-15T20:51:43.911Z,1.92
2022-09-15T20:54:12.278Z,2.30
2022-09-15T20:56:40.655Z,1.73
2022-09-15T20:59:14.915Z,1.80
2022-09-15T21:01:44.952Z,1.70
2022-09-15T21:04:13.568Z,1.58
2022-09-15T21:06:42.268Z,1.63
2022-09-15T21:09:10.626Z,1.80
2022-09-15T21:11:39.746Z,1.63
2022-09-15T21:14:08.229Z,2.00
2022-09-15T21:16:36.795Z,1.90
2022-09-15T21:19:07.950Z,2.13
2022-09-15T21:21:36.762Z,1.55
2022-09-15T21:24:08.523Z,2.33
2022-09-15T21:27:00.879Z,2.00
2022-09-15T21:29:29.932Z,2.50
2022-09-15T21:31:58.883Z,2.15
2022-09-15T21:34:31.606Z,2.30
2022-09-15T21:37:00.966Z,2.20
2022-09-15T21:39:29.613Z,2.72
2022-09-15T21:41:59.239Z,2.25
2022-09-15T21:44:28.147Z,2.05
2022-09-15T21:46:56.543Z,2.30
2022-09-15T21:49:25.328Z,2.25
2022-09-15T21:51:54.931Z,2.17
2022-09-15T21:54:23.915Z,2.42
2022-09-15T21:56:52.356Z,2.53
2022-09-15T21:59:20.487Z,2.03
2022-09-15T22:01:49.151Z,2.10
2022-09-15T22:04:17.549Z,2.22
2022-09-15T22:06:46.781Z,2.63
2022-09-15T22:09:21.130Z,2.30
2022-09-15T22:11:49.467Z,2.03
2022-09-15T22:14:17.780Z,2.35
2022-09-15T22:16:46.104Z,2.42
2022-09-15T22:19:15.166Z,2.47
2022-09-15T22:21:43.290Z,2.50
2022-09-15T22:24:14.049Z,2.50
2022-09-15T22:26:44.163Z,2.70
2022-09-15T22:29:12.654Z,2.25
2022-09-15T22:31:41.944Z,2.40
2022-09-15T22:34:10.872Z,2.15
2022-09-15T22:36:39.175Z,2.22
2022-09-15T22:39:07.796Z,2.22
2022-09-15T22:41:38.578Z,2.05
2022-09-15T22:44:18.574Z,2.20
2022-09-15T22:46:46.859Z,2.15
2022-09-15T22:49:15.096Z,2.10
2022-09-15T22:51:43.288Z,2.38
2022-09-15T22:54:11.585Z,2.53
2022-09-15T22:56:41.995Z,2.17
2022-09-15T22:59:12.064Z,2.20
2022-09-15T23:01:40.756Z,2.60
2022-09-15T23:04:09.449Z,2.60
2022-09-15T23:06:39.743Z,2.05
2022-09-15T23:09:10.456Z,1.85
2022-09-15T23:11:42.800Z,2.22
2022-09-15T23:14:15.899Z,2.42
2022-09-15T23:16:44.804Z,2.28
2022-09-15T23:19:16.688Z,1.88
2022-09-15T23:21:44.925Z,2.05
2022-09-15T23:24:13.882Z,1.92
2022-09-15T23:26:42.031Z,2.20
2022-09-15T23:29:10.225Z,2.28
2022-09-15T23:31:40.086Z,2.33
2022-09-15T23:34:08.338Z,2.00
2022-09-15T23:36:38.738Z,1.95
2022-09-15T23:39:06.884Z,2.33
2022-09-15T23:41:36.670Z,1.92
2022-09-15T23:44:05.329Z,2.15
2022-09-15T23:46:34.592Z,2.42
2022-09-15T23:49:04.149Z,2.35
2022-09-15T23:51:33.526Z,2.28
2022-09-15T23:54:03.246Z,2.58
2022-09-15T23:56:33.466Z,2.25
2022-09-15T23:59:02.269Z,2.17
